sensor_id;sensor_type;location;lat;lon;timestamp;P1;durP1;ratioP1;P2;durP2;ratioP2
44862;SDS011;30597;49.628;10.850;2022-08-21T00:00:27;4.23;;;3.83;;
44862;SDS011;30597;49.628;10.850;2022-08-21T00:02:57;3.90;;;3.50;;
44862;SDS011;30597;49.628;10.850;2022-08-21T00:05:26;3.73;;;3.43;;
44862;SDS011;30597;49.628;10.850;2022-08-21T00:07:53;3.70;;;3.40;;
44862;SDS011;30597;49.628;10.850;2022-08-21T00:10:19;4.17;;;3.40;;
44862;SDS011;30597;49.628;10.850;2022-08-21T00:12:45;4.37;;;3.40;;
44862;SDS011;30597;49.628;10.850;2022-08-21T00:15:12;3.20;;;2.93;;
44862;SDS011;30597;49.628;10.850;2022-08-21T00:17:40;3.43;;;3.13;;
44862;SDS011;30597;49.628;10.850;2022-08-21T00:20:07;4.30;;;3.30;;
44862;SDS011;30597;49.628;10.850;2022-08-21T00:22:35;5.47;;;3.20;;
44862;SDS011;30597;49.628;10.850;2022-08-21T00:25:01;4.20;;;3.80;;
44862;SDS011;30597;49.628;10.850;2022-08-21T00:27:29;3.87;;;3.47;;
44862;SDS011;30597;49.628;10.850;2022-08-21T00:29:54;4.30;;;3.90;;
44862;SDS011;30597;49.628;10.850;2022-08-21T00:32:24;5.87;;;3.40;;
44862;SDS011;30597;49.628;10.850;2022-08-21T00:34:52;4.30;;;4.00;;
44862;SDS011;30597;49.628;10.850;2022-08-21T00:37:18;4.33;;;3.40;;
44862;SDS011;30597;49.628;10.850;2022-08-21T00:39:43;3.67;;;3.10;;
44862;SDS011;30597;49.628;10.850;2022-08-21T00:42:10;3.87;;;3.57;;
44862;SDS011;30597;49.628;10.850;2022-08-21T00:44:40;4.00;;;3.10;;
44862;SDS011;30597;49.628;10.850;2022-08-21T00:47:07;4.37;;;4.00;;
44862;SDS011;30597;49.628;10.850;2022-08-21T00:49:33;4.03;;;3.63;;
44862;SDS011;30597;49.628;10.850;2022-08-21T00:51:59;5.07;;;4.00;;
44862;SDS011;30597;49.628;10.850;2022-08-21T00:54:27;4.03;;;3.73;;
44862;SDS011;30597;49.628;10.850;2022-08-21T00:56:57;3.90;;;3.60;;
44862;SDS011;30597;49.628;10.850;2022-08-21T00:59:29;4.00;;;3.63;;
44862;SDS011;30597;49.628;10.850;2022-08-21T01:01:58;3.67;;;3.37;;
44862;SDS011;30597;49.628;10.850;2022-08-21T01:04:24;3.70;;;3.40;;
44862;SDS011;30597;49.628;10.850;2022-08-21T01:06:49;5.40;;;4.00;;
44862;SDS011;30597;49.628;10.850;2022-08-21T01:09:16;3.20;;;2.90;;
44862;SDS011;30597;49.628;10.850;2022-08-21T01:11:43;3.40;;;3.00;;
44862;SDS011;30597;49.628;10.850;2022-08-21T01:14:10;4.00;;;3.67;;
44862;SDS011;30597;49.628;10.850;2022-08-21T01:16:38;4.10;;;3.70;;
44862;SDS011;30597;49.628;10.850;2022-08-21T01:19:05;3.37;;;3.10;;
44862;SDS011;30597;49.628;10.850;2022-08-21T01:21:33;5.20;;;3.47;;
44862;SDS011;30597;49.628;10.850;2022-08-21T01:23:58;3.83;;;3.53;;
44862;SDS011;30597;49.628;10.850;2022-08-21T01:26:27;3.80;;;3.50;;
44862;SDS011;30597;49.628;10.850;2022-08-21T01:31:44;5.47;;;2.90;;
44862;SDS011;30597;49.628;10.850;2022-08-21T01:34:10;3.30;;;3.00;;
44862;SDS011;30597;49.628;10.850;2022-08-21T01:36:36;3.10;;;2.80;;
44862;SDS011;30597;49.628;10.850;2022-08-21T01:39:02;5.03;;;3.30;;
44862;SDS011;30597;49.628;10.850;2022-08-21T01:41:29;4.03;;;3.73;;
44862;SDS011;30597;49.628;10.850;2022-08-21T01:43:55;3.93;;;3.57;;
44862;SDS011;30597;49.628;10.850;2022-08-21T01:46:21;3.87;;;3.57;;
44862;SDS011;30597;49.628;10.850;2022-08-21T01:48:46;3.17;;;2.87;;
44862;SDS011;30597;49.628;10.850;2022-08-21T01:51:12;3.30;;;3.00;;
44862;SDS011;30597;49.628;10.850;2022-08-21T01:53:38;3.43;;;3.13;;
44862;SDS011;30597;49.628;10.850;2022-08-21T01:56:05;3.53;;;3.23;;
44862;SDS011;30597;49.628;10.850;2022-08-21T01:58:32;3.43;;;3.13;;
44862;SDS011;30597;49.628;10.850;2022-08-21T02:00:58;3.87;;;3.53;;
44862;SDS011;30597;49.628;10.850;2022-08-21T02:03:26;4.10;;;3.53;;
44862;SDS011;30597;49.628;10.850;2022-08-21T02:05:53;3.50;;;3.27;;
44862;SDS011;30597;49.628;10.850;2022-08-21T02:08:18;3.27;;;2.97;;
44862;SDS011;30597;49.628;10.850;2022-08-21T02:10:44;4.07;;;3.67;;
44862;SDS011;30597;49.628;10.850;2022-08-21T02:13:11;4.10;;;3.80;;
44862;SDS011;30597;49.628;10.850;2022-08-21T02:15:37;3.53;;;3.23;;
44862;SDS011;30597;49.628;10.850;2022-08-21T02:18:04;3.30;;;3.03;;
44862;SDS011;30597;49.628;10.850;2022-08-21T02:20:35;3.87;;;3.50;;
44862;SDS011;30597;49.628;10.850;2022-08-21T02:23:03;3.40;;;3.10;;
44862;SDS011;30597;49.628;10.850;2022-08-21T02:25:30;4.17;;;3.47;;
44862;SDS011;30597;49.628;10.850;2022-08-21T02:27:56;3.80;;;3.47;;
44862;SDS011;30597;49.628;10.850;2022-08-21T02:30:24;4.37;;;3.97;;
44862;SDS011;30597;49.628;10.850;2022-08-21T02:32:59;4.43;;;4.00;;
44862;SDS011;30597;49.628;10.850;2022-08-21T02:35:25;4.50;;;4.03;;
44862;SDS011;30597;49.628;10.850;2022-08-21T02:37:52;3.50;;;3.20;;
44862;SDS011;30597;49.628;10.850;2022-08-21T02:40:21;4.50;;;4.10;;
44862;SDS011;30597;49.628;10.850;2022-08-21T02:42:49;3.47;;;3.17;;
44862;SDS011;30597;49.628;10.850;2022-08-21T02:45:15;3.77;;;3.47;;
44862;SDS011;30597;49.628;10.850;2022-08-21T02:47:51;4.87;;;3.70;;
44862;SDS011;30597;49.628;10.850;2022-08-21T02:50:41;3.83;;;3.53;;
44862;SDS011;30597;49.628;10.850;2022-08-21T02:53:09;3.67;;;3.37;;
44862;SDS011;30597;49.628;10.850;2022-08-21T02:55:36;4.23;;;3.83;;
44862;SDS011;30597;49.628;10.850;2022-08-21T02:58:03;3.53;;;3.23;;
44862;SDS011;30597;49.628;10.850;2022-08-21T03:00:31;4.13;;;3.73;;
44862;SDS011;30597;49.628;10.850;2022-08-21T03:02:58;4.20;;;3.53;;
44862;SDS011;30597;49.628;10.850;2022-08-21T03:05:24;4.20;;;3.90;;
44862;SDS011;30597;49.628;10.850;2022-08-21T03:07:51;4.43;;;4.03;;
44862;SDS011;30597;49.628;10.850;2022-08-21T03:10:17;4.00;;;3.70;;
44862;SDS011;30597;49.628;10.850;2022-08-21T03:12:44;3.73;;;3.43;;
44862;SDS011;30597;49.628;10.850;2022-08-21T03:15:11;4.30;;;3.90;;
44862;SDS011;30597;49.628;10.850;2022-08-21T03:17:38;4.13;;;3.73;;
44862;SDS011;30597;49.628;10.850;2022-08-21T03:20:04;3.83;;;3.53;;
44862;SDS011;30597;49.628;10.850;2022-08-21T03:22:31;3.40;;;3.10;;
44862;SDS011;30597;49.628;10.850;2022-08-21T03:24:57;3.80;;;3.50;;
44862;SDS011;30597;49.628;10.850;2022-08-21T03:27:23;3.80;;;3.50;;
44862;SDS011;30597;49.628;10.850;2022-08-21T03:29:49;5.07;;;4.67;;
44862;SDS011;30597;49.628;10.850;2022-08-21T03:32:15;4.47;;;4.07;;
44862;SDS011;30597;49.628;10.850;2022-08-21T03:34:40;4.20;;;3.60;;
44862;SDS011;30597;49.628;10.850;2022-08-21T03:37:07;4.97;;;4.57;;
44862;SDS011;30597;49.628;10.850;2022-08-21T03:39:33;3.87;;;3.57;;
44862;SDS011;30597;49.628;10.850;2022-08-21T03:41:59;4.13;;;3.73;;
44862;SDS011;30597;49.628;10.850;2022-08-21T03:44:26;5.13;;;3.80;;
44862;SDS011;30597;49.628;10.850;2022-08-21T03:46:54;4.40;;;4.00;;
44862;SDS011;30597;49.628;10.850;2022-08-21T03:49:20;4.83;;;4.43;;
44862;SDS011;30597;49.628;10.850;2022-08-21T03:51:45;4.57;;;4.17;;
44862;SDS011;30597;49.628;10.850;2022-08-21T03:54:11;5.30;;;4.77;;
44862;SDS011;30597;49.628;10.850;2022-08-21T03:56:36;6.27;;;5.60;;
44862;SDS011;30597;49.628;10.850;2022-08-21T03:59:02;5.87;;;5.23;;
44862;SDS011;30597;49.628;10.850;2022-08-21T04:01:28;7.97;;;5.90;;
44862;SDS011;30597;49.628;10.850;2022-08-21T04:03:54;6.60;;;6.00;;
44862;SDS011;30597;49.628;10.850;2022-08-21T04:06:20;6.50;;;5.80;;
44862;SDS011;30597;49.628;10.850;2022-08-21T04:08:46;6.37;;;5.77;;
44862;SDS011;30597;49.628;10.850;2022-08-21T04:11:11;6.97;;;5.70;;
44862;SDS011;30597;49.628;10.850;2022-08-21T04:13:37;5.30;;;4.80;;
44862;SDS011;30597;49.628;10.850;2022-08-21T04:16:03;5.53;;;5.03;;
44862;SDS011;30597;49.628;10.850;2022-08-21T04:18:29;6.33;;;5.53;;
44862;SDS011;30597;49.628;10.850;2022-08-21T04:20:55;5.90;;;5.30;;
44862;SDS011;30597;49.628;10.850;2022-08-21T04:23:23;5.83;;;5.20;;
44862;SDS011;30597;49.628;10.850;2022-08-21T04:25:49;5.03;;;4.63;;
44862;SDS011;30597;49.628;10.850;2022-08-21T04:28:14;5.43;;;4.97;;
44862;SDS011;30597;49.628;10.850;2022-08-21T04:30:40;5.00;;;4.50;;
44862;SDS011;30597;49.628;10.850;2022-08-21T04:33:06;5.07;;;4.67;;
44862;SDS011;30597;49.628;10.850;2022-08-21T04:35:32;6.40;;;5.80;;
44862;SDS011;30597;49.628;10.850;2022-08-21T04:37:57;6.13;;;5.57;;
44862;SDS011;30597;49.628;10.850;2022-08-21T04:40:24;7.00;;;6.40;;
44862;SDS011;30597;49.628;10.850;2022-08-21T04:42:56;7.57;;;6.87;;
44862;SDS011;30597;49.628;10.850;2022-08-21T04:45:29;7.40;;;6.70;;
44862;SDS011;30597;49.628;10.850;2022-08-21T04:48:01;7.03;;;6.40;;
44862;SDS011;30597;49.628;10.850;2022-08-21T04:50:34;7.50;;;6.80;;
44862;SDS011;30597;49.628;10.850;2022-08-21T04:53:00;6.87;;;6.27;;
44862;SDS011;30597;49.628;10.850;2022-08-21T04:55:26;6.90;;;6.30;;
44862;SDS011;30597;49.628;10.850;2022-08-21T04:57:53;6.83;;;6.23;;
44862;SDS011;30597;49.628;10.850;2022-08-21T05:00:21;6.40;;;5.90;;
44862;SDS011;30597;49.628;10.850;2022-08-21T05:02:49;6.40;;;5.80;;
44862;SDS011;30597;49.628;10.850;2022-08-21T05:05:19;6.07;;;5.57;;
44862;SDS011;30597;49.628;10.850;2022-08-21T05:07:45;6.10;;;5.60;;
44862;SDS011;30597;49.628;10.850;2022-08-21T05:10:12;5.60;;;5.10;;
44862;SDS011;30597;49.628;10.850;2022-08-21T05:12:39;4.97;;;4.57;;
44862;SDS011;30597;49.628;10.850;2022-08-21T05:15:06;5.63;;;5.13;;
44862;SDS011;30597;49.628;10.850;2022-08-21T05:17:33;5.20;;;4.70;;
44862;SDS011;30597;49.628;10.850;2022-08-21T05:19:58;4.53;;;4.13;;
44862;SDS011;30597;49.628;10.850;2022-08-21T05:22:24;5.03;;;4.63;;
44862;SDS011;30597;49.628;10.850;2022-08-21T05:24:50;5.67;;;5.17;;
44862;SDS011;30597;49.628;10.850;2022-08-21T05:27:16;4.80;;;4.40;;
44862;SDS011;30597;49.628;10.850;2022-08-21T05:29:42;4.63;;;4.30;;
44862;SDS011;30597;49.628;10.850;2022-08-21T05:32:08;4.23;;;3.93;;
44862;SDS011;30597;49.628;10.850;2022-08-21T05:34:35;4.57;;;4.17;;
44862;SDS011;30597;49.628;10.850;2022-08-21T05:37:00;4.93;;;4.30;;
44862;SDS011;30597;49.628;10.850;2022-08-21T05:39:26;4.20;;;3.80;;
44862;SDS011;30597;49.628;10.850;2022-08-21T05:41:52;4.60;;;4.20;;
44862;SDS011;30597;49.628;10.850;2022-08-21T05:44:17;4.70;;;3.60;;
44862;SDS011;30597;49.628;10.850;2022-08-21T05:46:42;4.13;;;3.80;;
44862;SDS011;30597;49.628;10.850;2022-08-21T05:49:08;3.67;;;3.37;;
44862;SDS011;30597;49.628;10.850;2022-08-21T05:51:34;3.63;;;3.33;;
44862;SDS011;30597;49.628;10.850;2022-08-21T05:54:00;3.70;;;3.40;;
44862;SDS011;30597;49.628;10.850;2022-08-21T05:56:25;4.00;;;3.70;;
44862;SDS011;30597;49.628;10.850;2022-08-21T05:58:51;3.90;;;3.60;;
44862;SDS011;30597;49.628;10.850;2022-08-21T06:01:16;4.17;;;3.57;;
44862;SDS011;30597;49.628;10.850;2022-08-21T06:03:42;3.43;;;3.13;;
44862;SDS011;30597;49.628;10.850;2022-08-21T06:06:08;3.53;;;3.23;;
44862;SDS011;30597;49.628;10.850;2022-08-21T06:08:34;3.33;;;3.10;;
44862;SDS011;30597;49.628;10.850;2022-08-21T06:11:01;4.07;;;3.77;;
44862;SDS011;30597;49.628;10.850;2022-08-21T06:13:28;3.80;;;3.50;;
44862;SDS011;30597;49.628;10.850;2022-08-21T06:18:33;3.57;;;3.27;;
44862;SDS011;30597;49.628;10.850;2022-08-21T06:20:59;4.03;;;3.73;;
44862;SDS011;30597;49.628;10.850;2022-08-21T06:23:25;2.90;;;2.70;;
44862;SDS011;30597;49.628;10.850;2022-08-21T06:25:50;3.50;;;3.20;;
44862;SDS011;30597;49.628;10.850;2022-08-21T06:28:16;3.33;;;3.03;;
44862;SDS011;30597;49.628;10.850;2022-08-21T06:30:41;4.50;;;4.10;;
44862;SDS011;30597;49.628;10.850;2022-08-21T06:33:07;3.13;;;2.83;;
44862;SDS011;30597;49.628;10.850;2022-08-21T06:35:33;3.83;;;3.50;;
44862;SDS011;30597;49.628;10.850;2022-08-21T06:37:59;3.50;;;3.20;;
44862;SDS011;30597;49.628;10.850;2022-08-21T06:40:25;3.27;;;2.97;;
44862;SDS011;30597;49.628;10.850;2022-08-21T06:42:52;3.83;;;3.10;;
44862;SDS011;30597;49.628;10.850;2022-08-21T06:45:18;3.53;;;3.23;;
44862;SDS011;30597;49.628;10.850;2022-08-21T06:47:43;2.70;;;2.50;;
44862;SDS011;30597;49.628;10.850;2022-08-21T06:50:09;5.20;;;3.20;;
44862;SDS011;30597;49.628;10.850;2022-08-21T06:52:35;3.50;;;3.20;;
44862;SDS011;30597;49.628;10.850;2022-08-21T06:55:05;4.70;;;4.30;;
44862;SDS011;30597;49.628;10.850;2022-08-21T06:57:32;5.47;;;4.20;;
44862;SDS011;30597;49.628;10.850;2022-08-21T06:59:58;6.60;;;5.40;;
44862;SDS011;30597;49.628;10.850;2022-08-21T07:02:24;5.60;;;5.10;;
44862;SDS011;30597;49.628;10.850;2022-08-21T07:04:49;8.97;;;5.80;;
44862;SDS011;30597;49.628;10.850;2022-08-21T07:07:15;6.60;;;6.00;;
44862;SDS011;30597;49.628;10.850;2022-08-21T07:09:41;7.37;;;6.77;;
44862;SDS011;30597;49.628;10.850;2022-08-21T07:12:07;6.40;;;5.83;;
44862;SDS011;30597;49.628;10.850;2022-08-21T07:14:33;6.60;;;6.07;;
44862;SDS011;30597;49.628;10.850;2022-08-21T07:16:58;6.63;;;6.03;;
44862;SDS011;30597;49.628;10.850;2022-08-21T07:19:24;8.37;;;7.57;;
44862;SDS011;30597;49.628;10.850;2022-08-21T07:21:50;8.23;;;7.43;;
44862;SDS011;30597;49.628;10.850;2022-08-21T07:24:15;10.87;;;8.30;;
44862;SDS011;30597;49.628;10.850;2022-08-21T07:26:41;9.00;;;8.10;;
44862;SDS011;30597;49.628;10.850;2022-08-21T07:29:07;11.67;;;9.80;;
44862;SDS011;30597;49.628;10.850;2022-08-21T07:31:32;10.57;;;9.57;;
44862;SDS011;30597;49.628;10.850;2022-08-21T07:33:58;9.80;;;8.50;;
44862;SDS011;30597;49.628;10.850;2022-08-21T07:36:23;9.63;;;8.63;;
44862;SDS011;30597;49.628;10.850;2022-08-21T07:38:49;11.43;;;10.30;;
44862;SDS011;30597;49.628;10.850;2022-08-21T07:41:18;10.83;;;9.73;;
44862;SDS011;30597;49.628;10.850;2022-08-21T07:43:45;10.00;;;8.73;;
44862;SDS011;30597;49.628;10.850;2022-08-21T07:46:11;9.90;;;8.83;;
44862;SDS011;30597;49.628;10.850;2022-08-21T07:48:37;10.00;;;8.23;;
44862;SDS011;30597;49.628;10.850;2022-08-21T07:51:05;9.27;;;8.30;;
44862;SDS011;30597;49.628;10.850;2022-08-21T07:53:32;9.03;;;8.10;;
44862;SDS011;30597;49.628;10.850;2022-08-21T07:55:58;11.80;;;8.33;;
44862;SDS011;30597;49.628;10.850;2022-08-21T07:58:24;7.83;;;6.73;;
44862;SDS011;30597;49.628;10.850;2022-08-21T08:00:49;8.43;;;7.63;;
44862;SDS011;30597;49.628;10.850;2022-08-21T08:03:15;8.60;;;7.80;;
44862;SDS011;30597;49.628;10.850;2022-08-21T08:05:41;9.10;;;8.20;;
44862;SDS011;30597;49.628;10.850;2022-08-21T08:08:06;8.57;;;6.63;;
44862;SDS011;30597;49.628;10.850;2022-08-21T08:10:32;9.37;;;8.47;;
44862;SDS011;30597;49.628;10.850;2022-08-21T08:12:58;7.60;;;6.90;;
44862;SDS011;30597;49.628;10.850;2022-08-21T08:15:25;8.83;;;7.47;;
44862;SDS011;30597;49.628;10.850;2022-08-21T08:17:51;8.80;;;7.87;;
44862;SDS011;30597;49.628;10.850;2022-08-21T08:20:17;7.57;;;6.87;;
44862;SDS011;30597;49.628;10.850;2022-08-21T08:22:44;9.77;;;8.27;;
44862;SDS011;30597;49.628;10.850;2022-08-21T08:25:12;9.73;;;7.70;;
44862;SDS011;30597;49.628;10.850;2022-08-21T08:27:38;8.33;;;7.43;;
44862;SDS011;30597;49.628;10.850;2022-08-21T08:30:05;8.80;;;7.30;;
44862;SDS011;30597;49.628;10.850;2022-08-21T08:32:32;7.20;;;6.50;;
44862;SDS011;30597;49.628;10.850;2022-08-21T08:34:58;7.27;;;6.67;;
44862;SDS011;30597;49.628;10.850;2022-08-21T08:37:24;7.87;;;7.07;;
44862;SDS011;30597;49.628;10.850;2022-08-21T08:39:49;8.57;;;7.60;;
44862;SDS011;30597;49.628;10.850;2022-08-21T08:42:18;9.70;;;7.73;;
44862;SDS011;30597;49.628;10.850;2022-08-21T08:44:49;9.53;;;7.77;;
44862;SDS011;30597;49.628;10.850;2022-08-21T08:47:47;9.57;;;8.23;;
44862;SDS011;30597;49.628;10.850;2022-08-21T08:50:18;9.23;;;8.33;;
44862;SDS011;30597;49.628;10.850;2022-08-21T08:52:49;9.30;;;8.40;;
44862;SDS011;30597;49.628;10.850;2022-08-21T08:55:44;8.87;;;7.93;;
44862;SDS011;30597;49.628;10.850;2022-08-21T08:58:23;8.70;;;7.90;;
44862;SDS011;30597;49.628;10.850;2022-08-21T09:00:55;9.43;;;8.50;;
44862;SDS011;30597;49.628;10.850;2022-08-21T09:03:21;9.20;;;8.40;;
44862;SDS011;30597;49.628;10.850;2022-08-21T09:05:50;12.07;;;8.87;;
44862;SDS011;30597;49.628;10.850;2022-08-21T09:11:28;10.00;;;9.00;;
44862;SDS011;30597;49.628;10.850;2022-08-21T09:14:04;8.70;;;7.77;;
44862;SDS011;30597;49.628;10.850;2022-08-21T09:16:51;8.30;;;7.50;;
44862;SDS011;30597;49.628;10.850;2022-08-21T09:19:55;9.00;;;8.10;;
44862;SDS011;30597;49.628;10.850;2022-08-21T09:25:33;9.33;;;8.33;;
44862;SDS011;30597;49.628;10.850;2022-08-21T09:28:07;11.63;;;8.33;;
44862;SDS011;30597;49.628;10.850;2022-08-21T09:30:36;9.67;;;8.77;;
44862;SDS011;30597;49.628;10.850;2022-08-21T09:33:05;9.90;;;9.00;;
44862;SDS011;30597;49.628;10.850;2022-08-21T09:35:31;9.90;;;8.90;;
44862;SDS011;30597;49.628;10.850;2022-08-21T09:38:02;10.80;;;9.80;;
44862;SDS011;30597;49.628;10.850;2022-08-21T09:43:07;12.97;;;10.70;;
44862;SDS011;30597;49.628;10.850;2022-08-21T09:45:46;9.70;;;8.80;;
44862;SDS011;30597;49.628;10.850;2022-08-21T09:48:24;9.87;;;8.87;;
44862;SDS011;30597;49.628;10.850;2022-08-21T09:50:50;12.10;;;10.90;;
44862;SDS011;30597;49.628;10.850;2022-08-21T09:53:21;11.37;;;10.30;;
44862;SDS011;30597;49.628;10.850;2022-08-21T09:56:03;11.70;;;10.60;;
44862;SDS011;30597;49.628;10.850;2022-08-21T09:58:49;10.77;;;9.77;;
44862;SDS011;30597;49.628;10.850;2022-08-21T10:01:20;11.23;;;10.13;;
44862;SDS011;30597;49.628;10.850;2022-08-21T10:03:47;13.00;;;11.70;;
44862;SDS011;30597;49.628;10.850;2022-08-21T10:06:22;12.33;;;11.13;;
44862;SDS011;30597;49.628;10.850;2022-08-21T10:08:51;10.40;;;9.40;;
44862;SDS011;30597;49.628;10.850;2022-08-21T10:11:35;12.37;;;11.17;;
44862;SDS011;30597;49.628;10.850;2022-08-21T10:17:01;12.40;;;11.30;;
44862;SDS011;30597;49.628;10.850;2022-08-21T10:19:38;12.70;;;11.37;;
44862;SDS011;30597;49.628;10.850;2022-08-21T10:25:04;10.80;;;9.80;;
44862;SDS011;30597;49.628;10.850;2022-08-21T10:30:46;11.37;;;10.37;;
44862;SDS011;30597;49.628;10.850;2022-08-21T10:33:28;11.57;;;10.43;;
44862;SDS011;30597;49.628;10.850;2022-08-21T10:36:05;12.00;;;10.60;;
44862;SDS011;30597;49.628;10.850;2022-08-21T10:41:16;13.13;;;11.83;;
44862;SDS011;30597;49.628;10.850;2022-08-21T10:44:17;11.57;;;10.57;;
44862;SDS011;30597;49.628;10.850;2022-08-21T10:47:09;11.17;;;10.07;;
44862;SDS011;30597;49.628;10.850;2022-08-21T10:49:47;9.97;;;9.07;;
44862;SDS011;30597;49.628;10.850;2022-08-21T10:52:37;10.53;;;9.47;;
44862;SDS011;30597;49.628;10.850;2022-08-21T10:55:21;10.40;;;9.50;;
44862;SDS011;30597;49.628;10.850;2022-08-21T10:57:58;11.00;;;9.97;;
44862;SDS011;30597;49.628;10.850;2022-08-21T11:00:33;12.50;;;11.40;;
44862;SDS011;30597;49.628;10.850;2022-08-21T11:05:38;11.17;;;10.20;;
44862;SDS011;30597;49.628;10.850;2022-08-21T11:08:14;9.87;;;8.90;;
44862;SDS011;30597;49.628;10.850;2022-08-21T11:10:47;12.03;;;10.30;;
44862;SDS011;30597;49.628;10.850;2022-08-21T11:19:19;8.47;;;7.63;;
44862;SDS011;30597;49.628;10.850;2022-08-21T11:24:54;9.40;;;8.60;;
44862;SDS011;30597;49.628;10.850;2022-08-21T11:27:31;8.23;;;7.53;;
44862;SDS011;30597;49.628;10.850;2022-08-21T11:30:05;8.80;;;7.90;;
44862;SDS011;30597;49.628;10.850;2022-08-21T11:40:49;8.80;;;7.90;;
44862;SDS011;30597;49.628;10.850;2022-08-21T11:51:20;8.83;;;8.03;;
44862;SDS011;30597;49.628;10.850;2022-08-21T11:53:51;8.43;;;7.73;;
44862;SDS011;30597;49.628;10.850;2022-08-21T11:56:29;8.93;;;8.13;;
44862;SDS011;30597;49.628;10.850;2022-08-21T11:59:02;8.00;;;7.30;;
44862;SDS011;30597;49.628;10.850;2022-08-21T12:01:39;7.40;;;6.70;;
44862;SDS011;30597;49.628;10.850;2022-08-21T12:04:17;7.67;;;6.97;;
44862;SDS011;30597;49.628;10.850;2022-08-21T12:06:53;7.03;;;6.43;;
44862;SDS011;30597;49.628;10.850;2022-08-21T12:12:06;6.60;;;6.10;;
44862;SDS011;30597;49.628;10.850;2022-08-21T12:14:38;6.47;;;5.83;;
44862;SDS011;30597;49.628;10.850;2022-08-21T12:17:16;7.03;;;6.43;;
44862;SDS011;30597;49.628;10.850;2022-08-21T12:19:44;6.50;;;5.93;;
44862;SDS011;30597;49.628;10.850;2022-08-21T12:22:11;6.63;;;6.13;;
44862;SDS011;30597;49.628;10.850;2022-08-21T12:24:45;7.10;;;6.50;;
44862;SDS011;30597;49.628;10.850;2022-08-21T12:29:55;7.00;;;6.40;;
44862;SDS011;30597;49.628;10.850;2022-08-21T12:32:28;6.63;;;6.03;;
44862;SDS011;30597;49.628;10.850;2022-08-21T12:40:18;6.70;;;6.10;;
44862;SDS011;30597;49.628;10.850;2022-08-21T12:42:49;9.53;;;6.90;;
44862;SDS011;30597;49.628;10.850;2022-08-21T12:47:51;8.43;;;6.70;;
44862;SDS011;30597;49.628;10.850;2022-08-21T12:53:28;6.77;;;6.10;;
44862;SDS011;30597;49.628;10.850;2022-08-21T12:56:01;6.80;;;6.30;;
44862;SDS011;30597;49.628;10.850;2022-08-21T12:58:29;6.70;;;6.10;;
44862;SDS011;30597;49.628;10.850;2022-08-21T13:00:57;6.50;;;5.70;;
44862;SDS011;30597;49.628;10.850;2022-08-21T13:03:28;6.57;;;5.97;;
44862;SDS011;30597;49.628;10.850;2022-08-21T13:05:55;5.60;;;5.10;;
44862;SDS011;30597;49.628;10.850;2022-08-21T13:08:21;6.70;;;5.90;;
44862;SDS011;30597;49.628;10.850;2022-08-21T13:10:49;5.67;;;5.27;;
44862;SDS011;30597;49.628;10.850;2022-08-21T13:13:27;5.30;;;4.90;;
44862;SDS011;30597;49.628;10.850;2022-08-21T13:15:57;6.33;;;5.77;;
44862;SDS011;30597;49.628;10.850;2022-08-21T13:18:31;7.10;;;5.60;;
44862;SDS011;30597;49.628;10.850;2022-08-21T13:21:09;6.10;;;5.60;;
44862;SDS011;30597;49.628;10.850;2022-08-21T13:23:36;5.30;;;4.80;;
44862;SDS011;30597;49.628;10.850;2022-08-21T13:26:11;5.60;;;5.10;;
44862;SDS011;30597;49.628;10.850;2022-08-21T13:28:41;7.20;;;5.03;;
44862;SDS011;30597;49.628;10.850;2022-08-21T13:31:09;13.73;;;6.30;;
44862;SDS011;30597;49.628;10.850;2022-08-21T13:33:35;5.57;;;4.97;;
44862;SDS011;30597;49.628;10.850;2022-08-21T13:36:10;6.97;;;4.40;;
44862;SDS011;30597;49.628;10.850;2022-08-21T13:38:40;5.20;;;4.70;;
44862;SDS011;30597;49.628;10.850;2022-08-21T13:41:13;5.20;;;4.70;;
44862;SDS011;30597;49.628;10.850;2022-08-21T13:43:48;5.30;;;4.90;;
44862;SDS011;30597;49.628;10.850;2022-08-21T13:46:21;5.80;;;5.30;;
44862;SDS011;30597;49.628;10.850;2022-08-21T13:48:48;5.70;;;4.90;;
44862;SDS011;30597;49.628;10.850;2022-08-21T13:51:15;6.03;;;4.20;;
44862;SDS011;30597;49.628;10.850;2022-08-21T13:56:06;5.00;;;4.50;;
44862;SDS011;30597;49.628;10.850;2022-08-21T13:58:41;5.50;;;5.00;;
44862;SDS011;30597;49.628;10.850;2022-08-21T14:01:17;5.43;;;5.03;;
44862;SDS011;30597;49.628;10.850;2022-08-21T14:03:46;5.20;;;4.70;;
44862;SDS011;30597;49.628;10.850;2022-08-21T14:06:18;4.83;;;4.33;;
44862;SDS011;30597;49.628;10.850;2022-08-21T14:08:50;5.43;;;4.93;;
44862;SDS011;30597;49.628;10.850;2022-08-21T14:11:18;5.80;;;5.27;;
44862;SDS011;30597;49.628;10.850;2022-08-21T14:13:45;5.60;;;5.10;;
44862;SDS011;30597;49.628;10.850;2022-08-21T14:18:47;4.83;;;4.33;;
44862;SDS011;30597;49.628;10.850;2022-08-21T14:21:23;4.50;;;4.10;;
44862;SDS011;30597;49.628;10.850;2022-08-21T14:24:02;4.30;;;4.00;;
44862;SDS011;30597;49.628;10.850;2022-08-21T14:26:30;4.70;;;4.23;;
44862;SDS011;30597;49.628;10.850;2022-08-21T14:28:58;7.10;;;6.00;;
44862;SDS011;30597;49.628;10.850;2022-08-21T14:31:27;5.50;;;5.00;;
44862;SDS011;30597;49.628;10.850;2022-08-21T14:33:55;10.37;;;7.77;;
44862;SDS011;30597;49.628;10.850;2022-08-21T14:36:21;8.70;;;6.83;;
44862;SDS011;30597;49.628;10.850;2022-08-21T14:38:47;8.40;;;6.30;;
44862;SDS011;30597;49.628;10.850;2022-08-21T14:41:19;9.67;;;6.43;;
44862;SDS011;30597;49.628;10.850;2022-08-21T14:43:47;15.10;;;8.40;;
44862;SDS011;30597;49.628;10.850;2022-08-21T14:46:16;18.07;;;10.80;;
44862;SDS011;30597;49.628;10.850;2022-08-21T14:48:46;11.77;;;8.73;;
44862;SDS011;30597;49.628;10.850;2022-08-21T14:51:12;9.67;;;7.50;;
44862;SDS011;30597;49.628;10.850;2022-08-21T14:53:38;19.90;;;10.30;;
44862;SDS011;30597;49.628;10.850;2022-08-21T14:56:03;14.07;;;8.77;;
44862;SDS011;30597;49.628;10.850;2022-08-21T14:58:29;14.80;;;8.83;;
44862;SDS011;30597;49.628;10.850;2022-08-21T15:00:55;10.33;;;7.43;;
44862;SDS011;30597;49.628;10.850;2022-08-21T15:03:23;12.20;;;8.10;;
44862;SDS011;30597;49.628;10.850;2022-08-21T15:05:49;10.27;;;6.50;;
44862;SDS011;30597;49.628;10.850;2022-08-21T15:08:14;7.93;;;6.57;;
44862;SDS011;30597;49.628;10.850;2022-08-21T15:10:40;10.47;;;7.07;;
44862;SDS011;30597;49.628;10.850;2022-08-21T15:13:06;11.50;;;6.40;;
44862;SDS011;30597;49.628;10.850;2022-08-21T15:15:34;9.33;;;6.20;;
44862;SDS011;30597;49.628;10.850;2022-08-21T15:18:04;7.93;;;5.00;;
44862;SDS011;30597;49.628;10.850;2022-08-21T15:20:30;11.73;;;5.63;;
44862;SDS011;30597;49.628;10.850;2022-08-21T15:22:55;7.00;;;5.10;;
44862;SDS011;30597;49.628;10.850;2022-08-21T15:25:21;7.50;;;4.63;;
44862;SDS011;30597;49.628;10.850;2022-08-21T15:27:47;7.67;;;4.60;;
44862;SDS011;30597;49.628;10.850;2022-08-21T15:30:13;14.27;;;4.10;;
44862;SDS011;30597;49.628;10.850;2022-08-21T15:32:38;6.80;;;3.77;;
44862;SDS011;30597;49.628;10.850;2022-08-21T15:35:05;5.13;;;3.93;;
44862;SDS011;30597;49.628;10.850;2022-08-21T15:37:31;6.87;;;3.67;;
44862;SDS011;30597;49.628;10.850;2022-08-21T15:39:57;5.53;;;3.57;;
44862;SDS011;30597;49.628;10.850;2022-08-21T15:42:23;6.60;;;3.70;;
44862;SDS011;30597;49.628;10.850;2022-08-21T15:44:51;4.53;;;4.07;;
44862;SDS011;30597;49.628;10.850;2022-08-21T15:47:19;5.43;;;4.20;;
44862;SDS011;30597;49.628;10.850;2022-08-21T15:49:49;6.03;;;5.43;;
44862;SDS011;30597;49.628;10.850;2022-08-21T15:52:20;5.50;;;5.00;;
44862;SDS011;30597;49.628;10.850;2022-08-21T15:54:46;5.50;;;4.97;;